createdAt,value
2023-01-01T00:01:16.570Z,97797.91
2023-01-01T00:03:44.234Z,97796.75
2023-01-01T00:06:14.001Z,97802.41
2023-01-01T00:08:41.601Z,97808.31
2023-01-01T00:11:10.566Z,97806.16
2023-01-01T00:13:41.015Z,97809.66
2023-01-01T00:16:14.546Z,97816.03
2023-01-01T00:18:42.457Z,97813.31
2023-01-01T00:21:15.050Z,97816.31
2023-01-01T00:23:42.577Z,97823.56
2023-01-01T00:26:15.542Z,97822.72
2023-01-01T00:28:43.714Z,97816.50
2023-01-01T00:31:17.627Z,97815.94
2023-01-01T00:33:46.540Z,97813.25
2023-01-01T00:36:16.104Z,97814.84
2023-01-01T00:38:45.301Z,97804.38
2023-01-01T00:41:14.090Z,97819.16
2023-01-01T00:43:41.917Z,97817.28
2023-01-01T00:46:09.757Z,97821.03
2023-01-01T00:48:37.632Z,97830.13
2023-01-01T00:51:05.536Z,97829.59
2023-01-01T00:53:33.195Z,97829.38
2023-01-01T00:56:00.822Z,97823.38
2023-01-01T00:58:28.701Z,97822.59
2023-01-01T01:00:56.528Z,97826.91
2023-01-01T01:03:30.428Z,97819.09
2023-01-01T01:05:59.100Z,97825.78
2023-01-01T01:08:30.919Z,97822.31
2023-01-01T01:11:25.929Z,97821.75
2023-01-01T01:13:54.268Z,97820.41
2023-01-01T01:16:30.624Z,97834.88
2023-01-01T01:19:00.435Z,97827.63
2023-01-01T01:21:30.215Z,97822.25
2023-01-01T01:23:59.938Z,97823.09
2023-01-01T01:26:30.371Z,97822.63
2023-01-01T01:28:58.638Z,97825.31
2023-01-01T01:31:28.853Z,97829.59
2023-01-01T01:33:57.683Z,97834.94
2023-01-01T01:36:26.024Z,97839.97
2023-01-01T01:38:54.032Z,97835.63
2023-01-01T01:41:28.972Z,97844.78
2023-01-01T01:44:25.034Z,97838.31
2023-01-01T01:46:52.581Z,97845.28
2023-01-01T01:49:30.709Z,97850.34
2023-01-01T01:52:01.022Z,97850.16
2023-01-01T01:54:29.705Z,97857.44
2023-01-01T01:57:01.606Z,97853.91
2023-01-01T01:59:33.752Z,97836.78
2023-01-01T02:02:02.322Z,97845.91
2023-01-01T02:04:29.986Z,97839.16
2023-01-01T02:06:57.731Z,97835.13
2023-01-01T02:09:25.268Z,97846.66
2023-01-01T02:11:52.866Z,97842.66
2023-01-01T02:14:20.364Z,97841.81
2023-01-01T02:17:01.539Z,97850.66
2023-01-01T02:20:02.599Z,97843.97
2023-01-01T02:22:51.917Z,97843.75
2023-01-01T02:25:39.559Z,97845.38
2023-01-01T02:28:51.691Z,97856.13
2023-01-01T02:31:24.862Z,97849.97
2023-01-01T02:33:56.802Z,97853.72
2023-01-01T02:36:27.169Z,97854.25
2023-01-01T02:38:57.694Z,97856.09
2023-01-01T02:41:33.954Z,97862.22
2023-01-01T02:46:35.727Z,97868.88
2023-01-01T02:49:09.816Z,97869.91
2023-01-01T02:51:43.404Z,97861.81
2023-01-01T02:54:17.122Z,97866.88
2023-01-01T02:57:11.006Z,97864.66
2023-01-01T03:00:03.259Z,97864.16
2023-01-01T03:02:37.190Z,97872.53
2023-01-01T03:05:11.466Z,97863.97
2023-01-01T03:08:05.960Z,97859.25
2023-01-01T03:11:09.110Z,97857.06
2023-01-01T03:13:51.241Z,97855.75
2023-01-01T03:16:40.791Z,97859.75
2023-01-01T03:19:16.715Z,97860.28
2023-01-01T03:21:52.037Z,97846.31
2023-01-01T03:24:41.360Z,97857.00
2023-01-01T03:27:18.254Z,97862.97
2023-01-01T03:29:48.452Z,97858.38
2023-01-01T03:32:21.462Z,97857.06
2023-01-01T03:34:55.088Z,97859.75
2023-01-01T03:37:28.889Z,97857.28
2023-01-01T03:39:59.553Z,97861.28
2023-01-01T03:42:51.886Z,97860.25
2023-01-01T03:45:25.530Z,97866.16
2023-01-01T03:47:53.192Z,97863.22
2023-01-01T03:50:26.563Z,97854.94
2023-01-01T03:53:21.435Z,97848.53
2023-01-01T03:56:23.308Z,97854.94
2023-01-01T03:58:59.540Z,97860.84
2023-01-01T04:01:33.435Z,97849.50
2023-01-01T04:04:01.603Z,97860.88
2023-01-01T04:06:29.052Z,97854.44
2023-01-01T04:08:59.115Z,97854.16
2023-01-01T04:11:48.411Z,97855.25
2023-01-01T04:14:28.632Z,97855.53
2023-01-01T04:16:57.630Z,97851.78
2023-01-01T04:19:26.416Z,97850.13
2023-01-01T04:21:53.990Z,97864.09
2023-01-01T04:24:21.693Z,97863.34
2023-01-01T04:26:49.716Z,97861.47
2023-01-01T04:29:17.654Z,97861.47
2023-01-01T04:31:46.153Z,97856.88
2023-01-01T04:34:13.618Z,97871.91
2023-01-01T04:36:41.245Z,97868.66
2023-01-01T04:39:09.516Z,97876.69
2023-01-01T04:41:37.146Z,97878.22
2023-01-01T04:44:04.802Z,97878.78
2023-01-01T04:46:32.397Z,97884.78
2023-01-01T04:48:59.861Z,97874.84
2023-01-01T04:51:27.435Z,97881.56
2023-01-01T04:53:54.901Z,97880.81
2023-01-01T04:56:22.990Z,97883.94
2023-01-01T04:58:50.748Z,97885.63
2023-01-01T05:01:23.789Z,97877.38
2023-01-01T05:03:51.773Z,97885.00
2023-01-01T05:06:20.980Z,97885.72
2023-01-01T05:08:50.751Z,97892.03
2023-01-01T05:11:24.277Z,97900.00
2023-01-01T05:13:53.505Z,97886.78
2023-01-01T05:16:23.782Z,97889.13
2023-01-01T05:18:52.214Z,97892.84
2023-01-01T05:21:27.867Z,97895.91
2023-01-01T05:23:57.488Z,97890.97
2023-01-01T05:26:28.307Z,97892.50
2023-01-01T05:32:43.253Z,97895.47
2023-01-01T05:35:10.699Z,97889.78
2023-01-01T05:37:38.236Z,97898.84
2023-01-01T05:40:06.403Z,97899.09
2023-01-01T05:42:34.005Z,97899.31
2023-01-01T05:45:01.456Z,97907.00
2023-01-01T05:47:30.038Z,97909.03
2023-01-01T05:49:57.704Z,97909.03
2023-01-01T05:52:26.896Z,97903.31
2023-01-01T05:54:54.673Z,97914.47
2023-01-01T05:57:22.091Z,97916.69
2023-01-01T05:59:49.665Z,97916.56
2023-01-01T06:02:18.708Z,97924.97
2023-01-01T06:04:46.795Z,97917.34
2023-01-01T06:07:14.366Z,97929.31
2023-01-01T06:09:42.024Z,97925.47
2023-01-01T06:12:10.755Z,97925.38
2023-01-01T06:14:38.255Z,97921.75
2023-01-01T06:17:06.154Z,97909.44
2023-01-01T06:19:33.633Z,97917.09
2023-01-01T06:22:01.064Z,97923.97
2023-01-01T06:24:30.533Z,97919.69
2023-01-01T06:27:01.372Z,97923.63
2023-01-01T06:29:28.941Z,97911.19
2023-01-01T06:31:56.457Z,97918.03
2023-01-01T06:34:24.182Z,97915.38
2023-01-01T06:36:51.656Z,97919.56
2023-01-01T06:39:19.115Z,97921.97
2023-01-01T06:41:47.911Z,97925.94
2023-01-01T06:44:15.362Z,97933.72
2023-01-01T06:46:42.985Z,97926.06
2023-01-01T06:49:13.060Z,97929.28
2023-01-01T06:51:43.682Z,97927.84
2023-01-01T06:54:12.206Z,97927.53
2023-01-01T06:56:39.801Z,97935.34
2023-01-01T06:59:07.627Z,97932.78
2023-01-01T07:01:37.014Z,97929.16
2023-01-01T07:04:08.403Z,97941.69
2023-01-01T07:06:36.359Z,97939.59
2023-01-01T07:09:04.707Z,97949.38
2023-01-01T07:11:32.608Z,97949.53
2023-01-01T07:14:02.455Z,97946.56
2023-01-01T07:16:30.051Z,97956.31
2023-01-01T07:18:57.729Z,97950.63
2023-01-01T07:21:38.508Z,97964.16
2023-01-01T07:24:07.053Z,97973.41
2023-01-01T07:26:34.636Z,97974.38
2023-01-01T07:29:07.625Z,97974.09
2023-01-01T07:31:41.916Z,97972.56
2023-01-01T07:34:19.331Z,97976.38
2023-01-01T07:36:47.110Z,97972.13
2023-01-01T07:39:14.565Z,97980.00
2023-01-01T07:41:42.287Z,97988.25
2023-01-01T07:44:09.809Z,97991.84
2023-01-01T07:46:37.995Z,98000.38
2023-01-01T07:49:05.710Z,97998.66
2023-01-01T07:51:33.423Z,98004.88
2023-01-01T07:54:06.478Z,98008.47
2023-01-01T07:56:35.808Z,98023.38
2023-01-01T07:59:03.492Z,98031.31
2023-01-01T08:01:31.162Z,98023.53
2023-01-01T08:03:58.693Z,98035.97
2023-01-01T08:06:26.385Z,98030.81
2023-01-01T08:08:54.239Z,98040.69
2023-01-01T08:11:21.845Z,98051.16
2023-01-01T08:13:49.430Z,98053.34
2023-01-01T08:16:17.120Z,98048.97
2023-01-01T08:18:44.615Z,98053.22
2023-01-01T08:21:12.107Z,98058.66
2023-01-01T08:23:39.601Z,98068.72
2023-01-01T08:26:07.105Z,98062.69
2023-01-01T08:28:34.624Z,98056.88
2023-01-01T08:31:02.172Z,98060.22
2023-01-01T08:33:30.032Z,98048.97
2023-01-01T08:35:57.840Z,98058.41
2023-01-01T08:38:25.616Z,98054.72
2023-01-01T08:40:53.510Z,98055.41
2023-01-01T08:43:21.009Z,98056.50
2023-01-01T08:45:48.598Z,98050.41
2023-01-01T08:48:16.074Z,98054.19
2023-01-01T08:50:43.634Z,98054.78
2023-01-01T08:53:11.148Z,98055.66
2023-01-01T08:55:38.730Z,98055.66
2023-01-01T08:58:07.799Z,98049.22
2023-01-01T09:00:35.607Z,98055.66
2023-01-01T09:03:03.168Z,98062.97
2023-01-01T09:05:30.790Z,98059.56
2023-01-01T09:07:58.253Z,98045.97
2023-01-01T09:10:25.838Z,98042.22
2023-01-01T09:12:53.357Z,98054.56
2023-01-01T09:15:20.874Z,98043.75
2023-01-01T09:17:48.330Z,98057.47
2023-01-01T09:20:15.911Z,98066.66
2023-01-01T09:22:43.440Z,98073.88
2023-01-01T09:25:11.003Z,98080.09
2023-01-01T09:27:38.465Z,98086.28
2023-01-01T09:30:06.613Z,98076.84
2023-01-01T09:32:33.982Z,98091.09
2023-01-01T09:35:01.574Z,98093.53
2023-01-01T09:37:29.110Z,98091.59
2023-01-01T09:39:56.793Z,98099.59
2023-01-01T09:42:51.564Z,98097.25
2023-01-01T09:45:28.318Z,98099.31
2023-01-01T09:48:09.960Z,98104.44
2023-01-01T09:50:41.506Z,98105.84
2023-01-01T09:53:15.670Z,98095.59
2023-01-01T09:56:04.051Z,98102.06
2023-01-01T09:58:37.023Z,98101.91
2023-01-01T10:01:16.542Z,98104.31
2023-01-01T10:04:10.238Z,98098.75
2023-01-01T10:06:48.060Z,98096.88
2023-01-01T10:09:33.539Z,98112.81
2023-01-01T10:12:36.221Z,98102.63
2023-01-01T10:15:12.144Z,98103.72
2023-01-01T10:17:45.030Z,98100.03
2023-01-01T10:20:40.793Z,98099.88
2023-01-01T10:23:35.725Z,98104.34
2023-01-01T10:26:18.075Z,98101.47
2023-01-01T10:28:49.518Z,98099.91
2023-01-01T10:31:40.205Z,98099.41
2023-01-01T10:34:12.384Z,98100.53
2023-01-01T10:36:39.964Z,98102.66
2023-01-01T10:39:07.795Z,98095.06
2023-01-01T10:41:35.294Z,98103.06
2023-01-01T10:44:03.842Z,98099.81
2023-01-01T10:46:32.354Z,98103.56
2023-01-01T10:49:12.462Z,98098.97
2023-01-01T10:51:51.216Z,98099.47
2023-01-01T10:54:31.127Z,98094.91
2023-01-01T10:57:00.283Z,98099.72
2023-01-01T10:59:38.638Z,98095.16
2023-01-01T11:02:19.986Z,98081.16
2023-01-01T11:04:48.755Z,98084.59
2023-01-01T11:07:36.902Z,98089.22
2023-01-01T11:10:07.722Z,98080.81
2023-01-01T11:13:04.134Z,98082.44
2023-01-01T11:15:38.905Z,98087.88
2023-01-01T11:18:13.660Z,98098.16
2023-01-01T11:20:42.451Z,98095.75
2023-01-01T11:23:34.088Z,98111.66
2023-01-01T11:26:20.408Z,98104.72
2023-01-01T11:29:17.477Z,98112.84
2023-01-01T11:31:47.615Z,98101.00
2023-01-01T11:34:24.175Z,98099.41
2023-01-01T11:36:51.925Z,98101.03
2023-01-01T11:39:29.040Z,98108.56
2023-01-01T11:41:58.422Z,98100.00
2023-01-01T11:44:37.618Z,98084.38
2023-01-01T11:47:07.281Z,98087.31
2023-01-01T11:49:35.184Z,98073.56
2023-01-01T11:52:48.971Z,98054.97
2023-01-01T11:55:42.322Z,98043.56
2023-01-01T11:58:48.257Z,98055.13
2023-01-01T12:01:19.531Z,98056.44
2023-01-01T12:04:01.593Z,98055.06
2023-01-01T12:06:38.071Z,98052.84
2023-01-01T12:09:18.457Z,98057.13
2023-01-01T12:12:05.472Z,98063.03
2023-01-01T12:14:46.393Z,98057.72
2023-01-01T12:17:32.269Z,98060.69
2023-01-01T12:20:11.770Z,98063.91
2023-01-01T12:22:40.432Z,98061.47
2023-01-01T12:25:13.709Z,98073.84
2023-01-01T12:28:02.886Z,98067.38
2023-01-01T12:30:57.170Z,98059.25
2023-01-01T12:33:44.943Z,98053.59
2023-01-01T12:36:38.099Z,98053.34
2023-01-01T12:39:44.340Z,98046.81
2023-01-01T12:42:33.674Z,98044.41
2023-01-01T12:45:44.161Z,98047.84
2023-01-01T12:48:34.371Z,98049.16
2023-01-01T12:51:16.330Z,98052.66
2023-01-01T12:54:16.423Z,98053.72
2023-01-01T12:57:00.251Z,98043.78
2023-01-01T12:59:34.346Z,98054.88
2023-01-01T13:02:12.470Z,98048.94
2023-01-01T13:04:42.130Z,98054.84
2023-01-01T13:07:13.304Z,98044.94
2023-01-01T13:09:46.078Z,98035.72
2023-01-01T13:12:25.494Z,98036.34
2023-01-01T13:14:53.253Z,98027.94
2023-01-01T13:17:23.848Z,98031.66
2023-01-01T13:20:14.357Z,98040.75
2023-01-01T13:22:44.266Z,98042.63
2023-01-01T13:25:11.741Z,98041.47
2023-01-01T13:27:59.602Z,98048.44
2023-01-01T13:30:36.018Z,98053.53
2023-01-01T13:33:26.551Z,98053.19
2023-01-01T13:36:12.507Z,98046.44
2023-01-01T13:38:46.798Z,98048.81
2023-01-01T13:41:44.038Z,98050.91
2023-01-01T13:44:12.651Z,98061.16
2023-01-01T13:46:52.140Z,98057.44
2023-01-01T13:49:25.724Z,98058.19
2023-01-01T13:52:06.520Z,98057.03
2023-01-01T13:54:53.623Z,98075.84
2023-01-01T13:57:33.291Z,98073.94
2023-01-01T14:00:20.185Z,98067.91
2023-01-01T14:02:58.975Z,98075.41
2023-01-01T14:05:55.553Z,98076.19
2023-01-01T14:08:29.953Z,98079.78
2023-01-01T14:10:58.069Z,98081.59
2023-01-01T14:13:30.192Z,98085.13
2023-01-01T14:16:07.648Z,98092.34
2023-01-01T14:18:50.702Z,98099.47
2023-01-01T14:21:24.366Z,98102.41
2023-01-01T14:23:56.534Z,98098.59
2023-01-01T14:26:26.538Z,98110.41
2023-01-01T14:28:55.890Z,98100.22
2023-01-01T14:31:30.463Z,98101.59
2023-01-01T14:33:58.022Z,98109.09
2023-01-01T14:36:28.368Z,98116.88
2023-01-01T14:38:58.177Z,98111.78
2023-01-01T14:41:31.473Z,98114.28
2023-01-01T14:44:06.899Z,98116.16
2023-01-01T14:46:40.403Z,98120.06
2023-01-01T14:49:11.504Z,98128.38
2023-01-01T14:51:44.928Z,98125.88
2023-01-01T14:54:19.706Z,98138.41
2023-01-01T14:56:50.085Z,98144.84
2023-01-01T14:59:33.821Z,98147.13
2023-01-01T15:02:16.381Z,98145.91
2023-01-01T15:04:44.434Z,98144.25
2023-01-01T15:07:22.040Z,98155.97
2023-01-01T15:09:51.144Z,98152.06
2023-01-01T15:12:20.248Z,98148.16
2023-01-01T15:14:50.667Z,98156.94
2023-01-01T15:17:24.392Z,98155.78
2023-01-01T15:20:23.444Z,98154.53
2023-01-01T15:22:52.720Z,98159.69
2023-01-01T15:25:21.261Z,98159.19
2023-01-01T15:27:50.655Z,98162.59
2023-01-01T15:30:25.747Z,98155.38
2023-01-01T15:32:53.935Z,98159.56
2023-01-01T15:35:32.118Z,98167.28
2023-01-01T15:38:03.910Z,98163.22
2023-01-01T15:40:34.945Z,98169.78
2023-01-01T15:43:02.387Z,98164.34
2023-01-01T15:45:35.092Z,98153.28
2023-01-01T15:48:20.955Z,98155.53
2023-01-01T15:50:51.339Z,98161.22
2023-01-01T15:53:24.992Z,98172.75
2023-01-01T15:56:01.976Z,98168.13
2023-01-01T15:58:39.620Z,98173.66
2023-01-01T16:01:12.547Z,98177.78
2023-01-01T16:03:42.425Z,98177.28
2023-01-01T16:06:17.305Z,98184.53
2023-01-01T16:08:44.932Z,98185.19
2023-01-01T16:11:14.396Z,98193.47
2023-01-01T16:13:42.318Z,98202.22
2023-01-01T16:16:26.637Z,98206.28
2023-01-01T16:18:55.486Z,98203.84
2023-01-01T16:21:28.708Z,98206.75
2023-01-01T16:23:57.989Z,98209.69
2023-01-01T16:26:25.616Z,98204.09
2023-01-01T16:28:53.153Z,98205.72
2023-01-01T16:31:25.874Z,98202.56
2023-01-01T16:33:55.726Z,98197.22
2023-01-01T16:36:24.161Z,98197.22
2023-01-01T16:38:51.692Z,98193.38
2023-01-01T16:41:19.586Z,98184.97
2023-01-01T16:43:48.404Z,98177.50
2023-01-01T16:46:16.660Z,98174.25
2023-01-01T16:48:44.514Z,98185.41
2023-01-01T16:51:29.479Z,98189.84
2023-01-01T16:53:57.540Z,98183.53
2023-01-01T16:56:25.071Z,98184.47
2023-01-01T16:59:02.254Z,98172.22
2023-01-01T17:01:30.980Z,98169.06
2023-01-01T17:04:00.099Z,98169.78
2023-01-01T17:06:27.886Z,98167.94
2023-01-01T17:08:55.420Z,98177.03
2023-01-01T17:11:25.113Z,98170.50
2023-01-01T17:13:53.041Z,98172.81
2023-01-01T17:16:27.028Z,98173.28
2023-01-01T17:21:45.098Z,98194.53
2023-01-01T17:24:12.604Z,98189.72
2023-01-01T17:26:40.144Z,98190.22
2023-01-01T17:29:07.867Z,98178.59
2023-01-01T17:31:35.649Z,98176.16
2023-01-01T17:34:03.912Z,98185.44
2023-01-01T17:36:31.740Z,98187.78
2023-01-01T17:38:59.204Z,98181.97
2023-01-01T17:41:26.820Z,98188.72
2023-01-01T17:43:54.357Z,98186.41
2023-01-01T17:46:24.828Z,98178.94
2023-01-01T17:48:53.541Z,98179.28
2023-01-01T17:51:21.457Z,98172.31
2023-01-01T17:53:49.841Z,98185.69
2023-01-01T17:56:18.940Z,98181.38
2023-01-01T17:58:47.828Z,98178.69
2023-01-01T18:01:24.472Z,98181.97
2023-01-01T18:03:54.637Z,98186.72
2023-01-01T18:06:23.017Z,98185.00
2023-01-01T18:08:55.839Z,98195.84
2023-01-01T18:11:24.021Z,98179.31
2023-01-01T18:13:51.528Z,98177.69
2023-01-01T18:16:19.234Z,98174.56
2023-01-01T18:18:46.805Z,98185.84
2023-01-01T18:21:22.410Z,98183.41
2023-01-01T18:23:55.297Z,98187.97
2023-01-01T18:26:26.130Z,98180.75
2023-01-01T18:28:58.846Z,98179.94
2023-01-01T18:31:28.677Z,98181.22
2023-01-01T18:33:56.511Z,98182.50
2023-01-01T18:36:27.712Z,98184.84
2023-01-01T18:38:59.729Z,98187.84
2023-01-01T18:41:43.931Z,98182.16
2023-01-01T18:44:17.160Z,98199.84
2023-01-01T18:46:45.180Z,98195.66
2023-01-01T18:49:12.687Z,98189.72
2023-01-01T18:51:40.218Z,98192.41
2023-01-01T18:54:15.709Z,98191.59
2023-01-01T18:56:43.317Z,98180.88
2023-01-01T18:59:21.921Z,98185.75
2023-01-01T19:01:49.698Z,98182.34
2023-01-01T19:04:19.883Z,98176.19
2023-01-01T19:06:47.382Z,98173.50
2023-01-01T19:09:23.535Z,98168.63
2023-01-01T19:11:53.425Z,98172.25
2023-01-01T19:14:23.538Z,98164.47
2023-01-01T19:16:55.263Z,98166.31
2023-01-01T19:19:25.574Z,98176.00
2023-01-01T19:22:02.024Z,98177.63
2023-01-01T19:24:33.394Z,98172.59
2023-01-01T19:27:15.118Z,98184.38
2023-01-01T19:29:45.264Z,98178.19
2023-01-01T19:32:12.922Z,98190.84
2023-01-01T19:34:40.427Z,98165.22
2023-01-01T19:37:13.045Z,98174.50
2023-01-01T19:39:40.659Z,98176.34
2023-01-01T19:42:08.150Z,98182.28
2023-01-01T19:44:37.079Z,98181.38
2023-01-01T19:47:05.056Z,98184.03
2023-01-01T19:49:32.764Z,98176.81
2023-01-01T19:52:00.401Z,98185.66
2023-01-01T19:54:27.904Z,98185.66
2023-01-01T19:56:55.376Z,98184.78
2023-01-01T19:59:29.288Z,98182.53
2023-01-01T20:02:35.096Z,98176.81
2023-01-01T20:04:48.323Z,98177.06
2023-01-01T20:07:16.021Z,98173.00
2023-01-01T20:09:43.989Z,98170.94
2023-01-01T20:12:11.467Z,98161.53
2023-01-01T20:14:38.948Z,98166.53
2023-01-01T20:17:06.332Z,98163.53
2023-01-01T20:19:35.328Z,98155.13
2023-01-01T20:22:12.029Z,98159.00
2023-01-01T20:24:42.677Z,98156.47
2023-01-01T20:27:11.504Z,98152.63
2023-01-01T20:29:39.196Z,98146.59
2023-01-01T20:32:12.829Z,98147.06
2023-01-01T20:34:40.553Z,98134.97
2023-01-01T20:37:26.823Z,98140.56
2023-01-01T20:39:54.622Z,98139.50
2023-01-01T20:42:22.333Z,98141.03
2023-01-01T20:44:49.903Z,98134.75
2023-01-01T20:47:17.378Z,98139.63
2023-01-01T20:49:45.017Z,98138.84
2023-01-01T20:52:12.476Z,98142.78
2023-01-01T20:54:40.003Z,98137.44
2023-01-01T20:57:07.455Z,98126.94
2023-01-01T20:59:36.769Z,98122.53
2023-01-01T21:02:07.267Z,98128.00
2023-01-01T21:04:39.245Z,98123.94
2023-01-01T21:07:09.114Z,98126.72
2023-01-01T21:09:37.625Z,98125.78
2023-01-01T21:12:06.118Z,98133.81
2023-01-01T21:14:34.596Z,98127.06
2023-01-01T21:17:17.585Z,98122.78
2023-01-01T21:19:45.281Z,98119.03
2023-01-01T21:22:14.116Z,98116.84
2023-01-01T21:24:41.676Z,98106.25
2023-01-01T21:27:17.835Z,98102.28
2023-01-01T21:29:52.183Z,98102.53
2023-01-01T21:32:20.062Z,98092.28
2023-01-01T21:34:50.468Z,98087.41
2023-01-01T21:37:50.840Z,98074.84
2023-01-01T21:40:35.285Z,98082.63
2023-01-01T21:43:05.601Z,98079.81
2023-01-01T21:45:56.589Z,98083.28
2023-01-01T21:48:33.163Z,98079.66
2023-01-01T21:51:01.856Z,98078.84
2023-01-01T21:53:36.400Z,98078.53
2023-01-01T21:56:26.157Z,98076.41
2023-01-01T21:59:12.669Z,98065.13
2023-01-01T22:01:43.716Z,98065.13
2023-01-01T22:04:11.432Z,98071.78
2023-01-01T22:10:33.266Z,98065.72
2023-01-01T22:13:01.375Z,98064.38
2023-01-01T22:15:39.045Z,98061.69
2023-01-01T22:18:12.414Z,98048.38
2023-01-01T22:20:42.560Z,98051.78
2023-01-01T22:23:40.144Z,98035.03
2023-01-01T22:26:27.966Z,98044.59
2023-01-01T22:29:02.533Z,98032.28
2023-01-01T22:31:33.561Z,98026.59
2023-01-01T22:34:03.604Z,98024.25
2023-01-01T22:36:34.827Z,98031.09
2023-01-01T22:39:09.335Z,98033.75
2023-01-01T22:41:36.955Z,98027.13
2023-01-01T22:44:04.956Z,98033.13
2023-01-01T22:46:37.144Z,98029.50
2023-01-01T22:49:39.012Z,98027.41
2023-01-01T22:52:07.982Z,98032.75
2023-01-01T22:54:35.603Z,98026.34
2023-01-01T22:57:06.048Z,98021.84
2023-01-01T22:59:33.554Z,98019.06
2023-01-01T23:02:01.133Z,98009.41
2023-01-01T23:04:29.346Z,98007.53
2023-01-01T23:06:56.945Z,98007.63
2023-01-01T23:09:24.787Z,98002.47
2023-01-01T23:11:54.689Z,97997.06
2023-01-01T23:14:41.353Z,97991.63
2023-01-01T23:17:09.624Z,97989.28
2023-01-01T23:19:37.058Z,97989.50
2023-01-01T23:22:04.828Z,97988.22
2023-01-01T23:24:33.033Z,97978.31
2023-01-01T23:27:01.570Z,97975.09
2023-01-01T23:29:32.559Z,97971.06
2023-01-01T23:32:01.407Z,97964.13
2023-01-01T23:34:29.057Z,97963.88
2023-01-01T23:36:57.696Z,97967.81
2023-01-01T23:39:25.095Z,97958.34
2023-01-01T23:41:52.618Z,97962.50
2023-01-01T23:44:20.088Z,97954.88
2023-01-01T23:46:48.039Z,97961.34
2023-01-01T23:49:15.909Z,97958.94
2023-01-01T23:51:43.557Z,97957.31
2023-01-01T23:54:11.055Z,97965.59
2023-01-01T23:56:38.522Z,97967.22
2023-01-01T23:59:06.098Z,97957.38
